Rechercher aéroport 
image banner adimage banner adimage banner ad
image banner ad

KLBE - Arnold Palmer Rgnl

Situé à Latrobe, United States

ICAO - LBE, IATA - LBE

Données fournies par Airmate  

Information générale

Coordonnées: N40°16'23" W79°24'37"
Élévation : 1199 feet MSL.
Variation magnétique : -10° East
Voir autres Aéroports à Pennsylvania

Données opérationnelles

Special qualification required
Heure actuelle UTC:
Heure actuelle locale:
Météo
METAR: KLBE 132047Z 21010KT 10SM SCT035 26/22 A2983
TAF: KLBE 131720Z 1318/1418 25005KT P6SM VCTS BKN050CB TEMPO 1320/1323 4SM -TSRA OVC040CB FM140100 24003KT P6SM SCT060 FM140600 25003KT 3SM BR BKN015 FM141300 23004KT P6SM SCT035
Voir NOTAMs / SUP AIP / TFR affectant cet aéroport [VIEW]
Fréquences de communication: [VIEW]

Pistes:

Identifiant RWYQFULongueur (ft)Largeur (ft)SurfaceLDA (ft)
0646°8222100ASPH8222
24226°8222100ASPH7372

Coordonnées de l'aéroport

Adresse: Latrobe United States

Autres services d'aviation

Écoles de pilotage

Pittsburgh Flying Club

Pittsburgh Flying Club
e170ca@gmail.com+1(412)849-2103

Westmoreland Aviation

Westmoreland Aviation

Vue satellite de KLBE